Frostburg, Maryland
Current Conditions -  °F | °C
As of 7:17 PM on Sunday 25 Jan 2015 (Local Time) from KCBE Reporting Station
Overcast Overcast  
Wind Chill: 39°   Ceiling: 900
Heat Index: 39°   Visibility: 7mi
Dew Point: 36°   Wind: 3mph
Humidity: 87%   Direction: 360°N
Pressure: 29.86"   Gusts: NA
Location:  39.66°N, 78.93°W
Report Text: KCBE 260017Z AUTO 36003KT 7SM BKN009 OVC022 04/02 A2986 RMK AO1
Loading
Personal Weather Stations






























Interactive Weather Map New forecast layout! Learn more

10-Day Weather Forecast

Advertisements
Track Severe Weather on mobile